createdAt,value
2022-11-20T00:01:10.715Z,15.63
2022-11-20T00:03:37.711Z,15.92
2022-11-20T00:06:07.336Z,16.20
2022-11-20T00:08:34.840Z,16.43
2022-11-20T00:11:15.315Z,16.40
2022-11-20T00:13:46.498Z,16.47
2022-11-20T00:16:15.832Z,16.51
2022-11-20T00:18:44.948Z,16.28
2022-11-20T00:21:15.082Z,16.14
2022-11-20T00:23:42.678Z,16.04
2022-11-20T00:26:12.268Z,16.66
2022-11-20T00:28:39.971Z,16.65
2022-11-20T00:31:15.729Z,16.65
2022-11-20T00:33:44.136Z,16.65
2022-11-20T00:36:17.488Z,16.84
2022-11-20T00:38:45.528Z,17.00
2022-11-20T00:41:15.608Z,17.20
2022-11-20T00:43:43.175Z,17.29
2022-11-20T00:46:15.706Z,17.41
2022-11-20T00:48:43.126Z,17.41
2022-11-20T00:51:12.135Z,17.63
2022-11-20T00:53:39.026Z,17.72
2022-11-20T00:56:08.070Z,17.72
2022-11-20T00:58:39.969Z,17.81
2022-11-20T01:01:13.380Z,17.96
2022-11-20T01:03:42.624Z,17.93
2022-11-20T01:06:17.185Z,18.11
2022-11-20T01:08:45.133Z,18.18
2022-11-20T01:11:17.052Z,17.95
2022-11-20T01:13:46.130Z,18.15
2022-11-20T01:16:13.067Z,18.24
2022-11-20T01:18:42.366Z,18.14
2022-11-20T01:21:12.996Z,18.16
2022-11-20T01:23:41.730Z,18.10
2022-11-20T01:26:11.966Z,18.19
2022-11-20T01:28:39.999Z,18.22
2022-11-20T01:31:13.918Z,18.36
2022-11-20T01:33:42.414Z,18.39
2022-11-20T01:36:10.746Z,18.41
2022-11-20T01:38:38.243Z,18.11
2022-11-20T01:41:05.576Z,18.23
2022-11-20T01:43:33.198Z,18.12
2022-11-20T01:46:06.237Z,18.26
2022-11-20T01:48:36.401Z,18.24
2022-11-20T01:51:06.819Z,18.00
2022-11-20T01:53:37.606Z,18.02
2022-11-20T01:56:07.982Z,18.04
2022-11-20T01:58:40.699Z,18.16
2022-11-20T02:01:07.834Z,18.21
2022-11-20T02:03:34.910Z,18.11
2022-11-20T02:06:26.462Z,17.99
2022-11-20T02:08:54.028Z,18.08
2022-11-20T02:11:21.120Z,18.05
2022-11-20T02:13:50.113Z,18.02
2022-11-20T02:16:20.375Z,17.90
2022-11-20T02:18:48.472Z,17.99
2022-11-20T02:21:41.296Z,18.08
2022-11-20T02:24:15.131Z,17.92
2022-11-20T02:26:58.409Z,17.81
2022-11-20T02:29:51.199Z,17.87
2022-11-20T02:32:26.560Z,17.68
2022-11-20T02:34:53.949Z,17.81
2022-11-20T02:37:22.135Z,17.87
2022-11-20T02:39:51.076Z,17.94
2022-11-20T02:42:18.846Z,18.04
2022-11-20T02:44:45.735Z,18.05
2022-11-20T02:47:12.923Z,18.07
2022-11-20T02:49:39.784Z,17.87
2022-11-20T02:52:06.783Z,17.93
2022-11-20T02:54:33.726Z,17.97
2022-11-20T02:57:00.919Z,17.84
2022-11-20T02:59:27.892Z,17.81
2022-11-20T03:01:54.734Z,17.84
2022-11-20T03:04:21.664Z,17.95
2022-11-20T03:06:48.651Z,17.95
2022-11-20T03:09:15.992Z,17.98
2022-11-20T03:11:43.280Z,17.95
2022-11-20T03:14:10.439Z,17.79
2022-11-20T03:16:37.329Z,17.97
2022-11-20T03:19:04.607Z,17.87
2022-11-20T03:21:31.524Z,18.04
2022-11-20T03:23:58.579Z,17.95
2022-11-20T03:26:27.219Z,17.85
2022-11-20T03:29:00.756Z,17.85
2022-11-20T03:31:34.546Z,17.79
2022-11-20T03:34:02.454Z,17.80
2022-11-20T03:36:29.954Z,17.77
2022-11-20T03:38:58.165Z,17.82
2022-11-20T03:41:30.369Z,17.61
2022-11-20T03:44:04.356Z,17.66
2022-11-20T03:46:31.867Z,17.77
2022-11-20T03:48:59.088Z,17.67
2022-11-20T03:51:31.662Z,17.72
2022-11-20T03:54:01.911Z,17.76
2022-11-20T03:56:31.150Z,17.64
2022-11-20T03:58:58.501Z,17.88
2022-11-20T04:01:32.565Z,17.91
2022-11-20T04:03:59.926Z,17.86
2022-11-20T04:06:34.149Z,18.07
2022-11-20T04:09:01.129Z,18.06
2022-11-20T04:11:30.833Z,18.02
2022-11-20T04:14:03.571Z,17.97
2022-11-20T04:16:34.096Z,17.81
2022-11-20T04:19:03.465Z,17.73
2022-11-20T04:21:30.873Z,17.80
2022-11-20T04:23:58.808Z,17.50
2022-11-20T04:26:27.728Z,17.54
2022-11-20T04:28:55.155Z,17.59
2022-11-20T04:31:27.619Z,17.67
2022-11-20T04:33:54.604Z,17.53
2022-11-20T04:36:26.518Z,17.38
2022-11-20T04:39:05.843Z,17.36
2022-11-20T04:41:34.302Z,17.48
2022-11-20T04:44:05.790Z,17.38
2022-11-20T04:46:35.871Z,17.43
2022-11-20T04:49:02.886Z,17.26
2022-11-20T04:51:29.865Z,17.42
2022-11-20T04:53:57.157Z,17.42
2022-11-20T04:56:24.309Z,17.47
2022-11-20T04:58:51.527Z,17.56
2022-11-20T05:01:21.926Z,17.65
2022-11-20T05:03:49.641Z,17.76
2022-11-20T05:06:18.781Z,17.89
2022-11-20T05:08:45.988Z,17.95
2022-11-20T05:11:15.388Z,18.04
2022-11-20T05:13:43.245Z,17.99
2022-11-20T05:16:15.426Z,17.92
2022-11-20T05:18:42.811Z,17.75
2022-11-20T05:21:11.448Z,17.94
2022-11-20T05:23:39.215Z,17.90
2022-11-20T05:26:08.862Z,17.89
2022-11-20T05:28:35.950Z,17.77
2022-11-20T05:31:11.525Z,17.74
2022-11-20T05:33:41.857Z,17.71
2022-11-20T05:36:09.126Z,17.75
2022-11-20T05:38:36.779Z,17.79
2022-11-20T05:41:22.484Z,17.77
2022-11-20T05:43:50.973Z,17.67
2022-11-20T05:46:24.727Z,17.62
2022-11-20T05:48:55.234Z,17.77
2022-11-20T05:51:22.476Z,17.64
2022-11-20T05:53:49.575Z,17.68
2022-11-20T05:56:19.430Z,17.38
2022-11-20T05:58:47.153Z,17.44
2022-11-20T06:01:14.069Z,17.37
2022-11-20T06:03:43.293Z,17.32
2022-11-20T06:06:10.442Z,17.36
2022-11-20T06:08:37.690Z,17.24
2022-11-20T06:11:09.721Z,17.14
2022-11-20T06:13:41.577Z,17.16
2022-11-20T06:16:10.567Z,17.21
2022-11-20T06:18:37.839Z,17.27
2022-11-20T06:21:14.310Z,17.29
2022-11-20T06:23:42.148Z,17.32
2022-11-20T06:26:14.484Z,17.28
2022-11-20T06:28:41.889Z,17.21
2022-11-20T06:31:11.382Z,17.17
2022-11-20T06:33:38.361Z,17.26
2022-11-20T06:36:10.444Z,17.26
2022-11-20T06:38:38.658Z,17.36
2022-11-20T06:41:13.274Z,17.31
2022-11-20T06:43:40.874Z,17.30
2022-11-20T06:46:08.155Z,17.39
2022-11-20T06:48:35.028Z,17.32
2022-11-20T06:51:04.885Z,17.41
2022-11-20T06:53:31.759Z,17.36
2022-11-20T06:55:59.056Z,17.47
2022-11-20T06:58:29.271Z,17.29
2022-11-20T07:01:00.942Z,17.37
2022-11-20T07:03:28.082Z,17.39
2022-11-20T07:05:59.114Z,17.43
2022-11-20T07:08:26.925Z,17.41
2022-11-20T07:10:53.801Z,17.52
2022-11-20T07:13:20.730Z,17.59
2022-11-20T07:15:47.831Z,17.55
2022-11-20T07:18:15.114Z,17.67
2022-11-20T07:20:41.987Z,17.66
2022-11-20T07:23:09.217Z,17.72
2022-11-20T07:25:37.097Z,17.64
2022-11-20T07:28:04.774Z,17.61
2022-11-20T07:30:31.683Z,17.77
2022-11-20T07:32:59.037Z,17.77
2022-11-20T07:35:26.118Z,17.77
2022-11-20T07:37:53.092Z,17.86
2022-11-20T07:40:20.811Z,17.80
2022-11-20T07:42:52.815Z,17.77
2022-11-20T07:45:21.758Z,17.73
2022-11-20T07:47:49.471Z,17.74
2022-11-20T07:50:18.032Z,17.59
2022-11-20T07:52:45.162Z,17.54
2022-11-20T07:55:12.647Z,17.63
2022-11-20T07:57:39.941Z,17.51
2022-11-20T08:00:10.214Z,17.29
2022-11-20T08:02:54.892Z,17.49
2022-11-20T08:05:30.111Z,17.43
2022-11-20T08:07:57.189Z,17.56
2022-11-20T08:10:24.203Z,17.54
2022-11-20T08:13:11.780Z,17.48
2022-11-20T08:15:40.799Z,17.58
2022-11-20T08:20:58.816Z,17.57
2022-11-20T08:23:26.260Z,17.64
2022-11-20T08:25:53.276Z,17.59
2022-11-20T08:28:21.730Z,17.54
2022-11-20T08:30:51.019Z,17.28
2022-11-20T08:33:19.524Z,17.64
2022-11-20T08:35:46.541Z,17.70
2022-11-20T08:38:13.471Z,17.53
2022-11-20T08:40:41.453Z,17.77
2022-11-20T08:43:08.311Z,17.85
2022-11-20T08:45:35.670Z,17.74
2022-11-20T08:48:04.493Z,17.69
2022-11-20T08:50:33.312Z,17.77
2022-11-20T08:53:07.014Z,17.77
2022-11-20T08:55:34.133Z,17.84
2022-11-20T08:58:05.343Z,17.93
2022-11-20T09:00:33.578Z,17.85
2022-11-20T09:03:02.191Z,17.80
2022-11-20T09:05:29.450Z,17.86
2022-11-20T09:08:00.717Z,17.86
2022-11-20T09:10:28.853Z,17.93
2022-11-20T09:12:56.320Z,17.83
2022-11-20T09:15:24.589Z,17.77
2022-11-20T09:17:56.632Z,17.66
2022-11-20T09:20:23.769Z,17.74
2022-11-20T09:22:50.752Z,17.63
2022-11-20T09:25:18.397Z,17.61
2022-11-20T09:27:47.237Z,17.46
2022-11-20T09:30:16.298Z,17.34
2022-11-20T09:32:44.086Z,17.20
2022-11-20T09:35:12.088Z,17.15
2022-11-20T09:37:39.376Z,17.15
2022-11-20T09:40:07.896Z,16.99
2022-11-20T09:42:42.475Z,17.02
2022-11-20T09:45:12.596Z,17.00
2022-11-20T09:47:56.022Z,16.97
2022-11-20T09:50:32.947Z,16.94
2022-11-20T09:53:15.313Z,16.96
2022-11-20T09:55:43.474Z,17.01
2022-11-20T09:58:36.702Z,17.03
2022-11-20T10:01:35.214Z,16.83
2022-11-20T10:04:11.722Z,17.04
2022-11-20T10:06:49.358Z,17.07
2022-11-20T10:09:28.790Z,17.17
2022-11-20T10:12:27.294Z,17.26
2022-11-20T10:14:57.373Z,17.33
2022-11-20T10:17:32.554Z,17.30
2022-11-20T10:20:27.491Z,17.41
2022-11-20T10:23:06.664Z,17.62
2022-11-20T10:25:41.063Z,17.60
2022-11-20T10:28:37.297Z,17.42
2022-11-20T10:31:11.543Z,17.31
2022-11-20T10:34:10.563Z,17.26
2022-11-20T10:36:38.428Z,17.37
2022-11-20T10:39:17.137Z,17.19
2022-11-20T10:41:49.663Z,16.67
2022-11-20T10:44:46.508Z,16.97
2022-11-20T10:47:18.552Z,16.88
2022-11-20T10:50:10.748Z,16.86
2022-11-20T10:53:01.481Z,17.02
2022-11-20T10:55:52.181Z,16.98
2022-11-20T10:58:31.109Z,17.07
2022-11-20T11:01:16.011Z,17.07
2022-11-20T11:03:46.824Z,17.08
2022-11-20T11:06:28.996Z,17.10
2022-11-20T11:08:59.866Z,16.84
2022-11-20T11:11:33.064Z,16.75
2022-11-20T11:14:07.451Z,16.58
2022-11-20T11:16:35.395Z,16.35
2022-11-20T11:19:14.390Z,16.13
2022-11-20T11:21:54.937Z,16.00
2022-11-20T11:24:41.833Z,15.82
2022-11-20T11:27:18.683Z,15.75
2022-11-20T11:29:47.253Z,15.59
2022-11-20T11:32:22.710Z,15.42
2022-11-20T11:35:04.899Z,15.37
2022-11-20T11:37:38.115Z,15.18
2022-11-20T11:40:24.318Z,15.30
2022-11-20T11:42:57.538Z,15.14
2022-11-20T11:45:25.209Z,15.15
2022-11-20T11:47:55.000Z,15.13
2022-11-20T11:50:27.402Z,14.88
2022-11-20T11:53:17.750Z,15.06
2022-11-20T11:56:06.054Z,15.08
2022-11-20T11:58:48.011Z,15.04
2022-11-20T12:01:35.203Z,15.05
2022-11-20T12:04:39.613Z,15.01
2022-11-20T12:07:51.368Z,15.10
2022-11-20T12:10:33.695Z,15.15
2022-11-20T12:13:17.321Z,15.12
2022-11-20T12:15:47.519Z,15.12
2022-11-20T12:18:23.269Z,15.14
2022-11-20T12:21:11.348Z,15.13
2022-11-20T12:23:41.157Z,15.18
2022-11-20T12:26:46.565Z,15.10
2022-11-20T12:29:31.833Z,15.10
2022-11-20T12:32:17.468Z,15.02
2022-11-20T12:35:07.238Z,15.00
2022-11-20T12:37:43.060Z,14.80
2022-11-20T12:40:15.869Z,14.81
2022-11-20T12:43:25.647Z,14.83
2022-11-20T12:46:22.501Z,14.72
2022-11-20T12:49:35.641Z,14.63
2022-11-20T12:52:08.370Z,14.61
2022-11-20T12:55:04.261Z,14.48
2022-11-20T12:57:38.270Z,14.45
2022-11-20T13:00:15.095Z,14.30
2022-11-20T13:03:09.427Z,14.21
2022-11-20T13:06:05.139Z,14.25
2022-11-20T13:08:38.151Z,14.16
2022-11-20T13:11:34.586Z,14.13
2022-11-20T13:14:13.041Z,14.15
2022-11-20T13:16:49.254Z,14.07
2022-11-20T13:19:18.276Z,14.03
2022-11-20T13:21:47.580Z,14.05
2022-11-20T13:24:20.561Z,14.14
2022-11-20T13:26:48.491Z,14.03
2022-11-20T13:29:20.095Z,14.13
2022-11-20T13:31:49.292Z,14.14
2022-11-20T13:34:29.764Z,14.17
2022-11-20T13:37:01.387Z,14.10
2022-11-20T13:39:34.099Z,14.10
2022-11-20T13:42:02.689Z,14.14
2022-11-20T13:44:40.145Z,13.88
2022-11-20T13:47:26.551Z,14.12
2022-11-20T13:49:56.586Z,13.97
2022-11-20T13:52:52.674Z,14.07
2022-11-20T13:55:52.186Z,14.10
2022-11-20T13:58:47.383Z,14.16
2022-11-20T14:01:41.129Z,14.00
2022-11-20T14:04:18.848Z,14.03
2022-11-20T14:06:49.373Z,14.04
2022-11-20T14:09:26.978Z,14.01
2022-11-20T14:11:53.987Z,13.75
2022-11-20T14:14:23.812Z,13.96
2022-11-20T14:16:52.142Z,13.97
2022-11-20T14:19:22.183Z,13.98
2022-11-20T14:22:25.779Z,14.09
2022-11-20T14:25:31.581Z,14.06
2022-11-20T14:28:01.020Z,14.04
2022-11-20T14:30:50.360Z,14.11
2022-11-20T14:33:18.452Z,14.22
2022-11-20T14:35:48.088Z,14.12
2022-11-20T14:38:23.478Z,14.19
2022-11-20T14:40:50.478Z,13.96
2022-11-20T14:43:24.233Z,14.01
2022-11-20T14:46:00.445Z,13.91
2022-11-20T14:48:40.886Z,13.96
2022-11-20T14:51:11.818Z,13.99
2022-11-20T14:53:39.085Z,14.12
2022-11-20T14:56:06.110Z,14.17
2022-11-20T14:58:35.180Z,13.91
2022-11-20T15:01:05.605Z,14.13
2022-11-20T15:03:41.338Z,14.11
2022-11-20T15:06:12.716Z,13.89
2022-11-20T15:08:39.750Z,14.11
2022-11-20T15:11:20.831Z,14.13
2022-11-20T15:13:47.813Z,14.11
2022-11-20T15:16:20.675Z,14.15
2022-11-20T15:18:48.406Z,14.10
2022-11-20T15:21:17.528Z,14.15
2022-11-20T15:23:45.241Z,14.09
2022-11-20T15:26:19.448Z,14.12
2022-11-20T15:28:51.177Z,13.99
2022-11-20T15:31:21.650Z,14.08
2022-11-20T15:33:48.839Z,13.91
2022-11-20T15:36:16.237Z,13.98
2022-11-20T15:38:43.442Z,13.96
2022-11-20T15:41:11.248Z,13.93
2022-11-20T15:43:38.560Z,13.92
2022-11-20T15:46:18.350Z,13.83
2022-11-20T15:48:49.122Z,13.87
2022-11-20T15:51:31.682Z,13.63
2022-11-20T15:53:59.208Z,13.24
2022-11-20T15:56:26.749Z,13.09
2022-11-20T15:58:54.360Z,12.90
2022-11-20T16:01:23.547Z,12.85
2022-11-20T16:03:50.562Z,12.42
2022-11-20T16:06:17.752Z,12.50
2022-11-20T16:08:44.915Z,12.36
2022-11-20T16:11:14.187Z,12.48
2022-11-20T16:14:00.418Z,12.38
2022-11-20T16:16:31.231Z,12.26
2022-11-20T16:18:59.186Z,12.34
2022-11-20T16:21:32.516Z,12.39
2022-11-20T16:24:01.377Z,12.38
2022-11-20T16:26:28.894Z,12.28
2022-11-20T16:28:56.849Z,12.29
2022-11-20T16:31:25.338Z,12.29
2022-11-20T16:33:54.352Z,12.14
2022-11-20T16:36:24.171Z,12.21
2022-11-20T16:38:55.990Z,12.15
2022-11-20T16:41:24.534Z,12.19
2022-11-20T16:43:55.171Z,12.19
2022-11-20T16:46:24.284Z,12.00
2022-11-20T16:49:02.148Z,12.17
2022-11-20T16:51:30.791Z,12.21
2022-11-20T16:53:57.888Z,11.98
2022-11-20T16:56:26.952Z,12.30
2022-11-20T16:58:56.390Z,12.26
2022-11-20T17:01:23.976Z,12.26
2022-11-20T17:03:55.521Z,12.22
2022-11-20T17:06:25.819Z,12.21
2022-11-20T17:08:54.498Z,12.08
2022-11-20T17:11:23.272Z,12.21
2022-11-20T17:13:50.285Z,12.23
2022-11-20T17:16:19.928Z,12.24
2022-11-20T17:18:47.513Z,12.18
2022-11-20T17:21:14.483Z,12.20
2022-11-20T17:23:43.634Z,12.18
2022-11-20T17:26:17.751Z,12.19
2022-11-20T17:28:46.678Z,12.20
2022-11-20T17:31:16.775Z,12.12
2022-11-20T17:33:46.190Z,12.19
2022-11-20T17:36:15.104Z,12.18
2022-11-20T17:38:42.648Z,12.09
2022-11-20T17:41:15.597Z,12.10
2022-11-20T17:43:43.700Z,12.10
2022-11-20T17:46:18.998Z,12.15
2022-11-20T17:48:47.711Z,12.16
2022-11-20T17:51:20.108Z,12.18
2022-11-20T17:53:50.209Z,12.21
2022-11-20T17:56:36.635Z,12.18
2022-11-20T17:59:08.786Z,12.18
2022-11-20T18:01:36.758Z,12.03
2022-11-20T18:04:04.334Z,11.95
2022-11-20T18:06:32.470Z,12.11
2022-11-20T18:09:00.360Z,12.21
2022-11-20T18:11:30.377Z,11.32
2022-11-20T18:14:18.114Z,12.30
2022-11-20T18:16:49.046Z,12.24
2022-11-20T18:19:20.204Z,12.03
2022-11-20T18:21:47.724Z,11.97
2022-11-20T18:24:15.190Z,11.92
2022-11-20T18:26:44.685Z,12.06
2022-11-20T18:29:13.208Z,12.17
2022-11-20T18:31:41.275Z,12.18
2022-11-20T18:34:11.760Z,12.14
2022-11-20T18:36:39.069Z,12.05
2022-11-20T18:39:06.681Z,12.14
2022-11-20T18:42:08.936Z,12.21
2022-11-20T18:44:51.511Z,11.91
2022-11-20T18:47:21.527Z,12.16
2022-11-20T18:49:54.311Z,12.22
2022-11-20T18:52:39.160Z,12.32
2022-11-20T18:55:08.138Z,12.12
2022-11-20T18:57:37.018Z,11.50
2022-11-20T19:00:09.339Z,12.21
2022-11-20T19:02:42.203Z,12.30
2022-11-20T19:05:11.318Z,12.25
2022-11-20T19:07:38.691Z,12.54
2022-11-20T19:10:06.323Z,12.17
2022-11-20T19:12:33.475Z,12.23
2022-11-20T19:15:00.674Z,12.03
2022-11-20T19:17:27.705Z,12.12
2022-11-20T19:19:55.243Z,12.02
2022-11-20T19:22:22.418Z,12.12
2022-11-20T19:24:49.766Z,12.14
2022-11-20T19:27:16.814Z,12.18
2022-11-20T19:29:44.090Z,12.07
2022-11-20T19:32:11.564Z,11.99
2022-11-20T19:34:39.015Z,12.10
2022-11-20T19:37:06.128Z,11.63
2022-11-20T19:39:33.202Z,11.91
2022-11-20T19:42:00.113Z,11.99
2022-11-20T19:44:27.296Z,11.97
2022-11-20T19:46:57.249Z,11.87
2022-11-20T19:49:24.548Z,11.90
2022-11-20T19:51:52.469Z,11.68
2022-11-20T19:54:19.716Z,11.66
2022-11-20T19:56:48.797Z,11.67
2022-11-20T19:59:16.103Z,11.50
2022-11-20T20:01:43.548Z,11.20
2022-11-20T20:04:10.652Z,11.64
2022-11-20T20:06:39.113Z,11.77
2022-11-20T20:09:08.870Z,11.78
2022-11-20T20:11:36.389Z,11.66
2022-11-20T20:14:06.249Z,11.54
2022-11-20T20:16:34.423Z,11.65
2022-11-20T20:19:03.358Z,11.64
2022-11-20T20:21:31.969Z,11.79
2022-11-20T20:23:59.434Z,11.70
2022-11-20T20:26:29.077Z,11.82
2022-11-20T20:28:56.465Z,11.68
2022-11-20T20:31:26.551Z,11.80
2022-11-20T20:33:54.297Z,12.00
2022-11-20T20:36:23.185Z,11.71
2022-11-20T20:38:59.590Z,11.78
2022-11-20T20:41:27.024Z,11.83
2022-11-20T20:44:12.964Z,11.80
2022-11-20T20:46:41.269Z,11.73
2022-11-20T20:49:08.722Z,11.63
2022-11-20T20:51:36.370Z,11.54
2022-11-20T20:54:04.627Z,11.71
2022-11-20T20:56:31.787Z,11.67
2022-11-20T20:58:58.810Z,11.54
2022-11-20T21:01:28.992Z,11.84
2022-11-20T21:03:57.189Z,11.68
2022-11-20T21:06:24.338Z,11.77
2022-11-20T21:08:51.271Z,11.75
2022-11-20T21:11:20.071Z,11.70
2022-11-20T21:13:47.899Z,11.70
2022-11-20T21:16:16.539Z,11.58
2022-11-20T21:18:43.578Z,11.76
2022-11-20T21:21:32.256Z,11.83
2022-11-20T21:23:59.406Z,11.69
2022-11-20T21:26:26.518Z,11.55
2022-11-20T21:28:53.999Z,11.67
2022-11-20T21:31:23.542Z,11.64
2022-11-20T21:33:51.509Z,11.69
2022-11-20T21:36:20.992Z,11.73
2022-11-20T21:38:48.425Z,11.66
2022-11-20T21:41:15.626Z,11.60
2022-11-20T21:43:44.300Z,11.57
2022-11-20T21:46:16.671Z,11.46
2022-11-20T21:48:44.922Z,11.54
2022-11-20T21:51:13.008Z,11.59
2022-11-20T21:53:40.478Z,11.76
2022-11-20T21:56:09.606Z,11.85
2022-11-20T21:58:38.137Z,11.86
2022-11-20T22:01:16.488Z,11.84
2022-11-20T22:03:47.203Z,11.61
2022-11-20T22:06:18.545Z,11.65
2022-11-20T22:08:45.910Z,11.50
2022-11-20T22:11:15.358Z,11.58
2022-11-20T22:14:01.622Z,11.40
2022-11-20T22:16:28.974Z,11.58
2022-11-20T22:18:57.794Z,11.60
2022-11-20T22:21:27.481Z,11.40
2022-11-20T22:23:54.606Z,11.43
2022-11-20T22:26:24.170Z,11.32
2022-11-20T22:28:53.108Z,11.44
2022-11-20T22:31:21.382Z,11.32
2022-11-20T22:33:48.855Z,11.25
2022-11-20T22:36:21.539Z,11.19
2022-11-20T22:38:48.961Z,11.12
2022-11-20T22:41:18.267Z,11.16
2022-11-20T22:43:46.023Z,11.24
2022-11-20T22:46:57.483Z,11.38
2022-11-20T22:49:25.677Z,11.29
2022-11-20T22:51:53.001Z,11.41
2022-11-20T22:54:20.244Z,11.30
2022-11-20T22:56:47.084Z,11.17
2022-11-20T22:59:14.156Z,11.11
2022-11-20T23:01:41.134Z,11.10
2022-11-20T23:04:10.847Z,11.16
2022-11-20T23:06:38.871Z,11.08
2022-11-20T23:09:07.314Z,10.96
2022-11-20T23:11:35.623Z,11.01
2022-11-20T23:14:14.091Z,11.05
2022-11-20T23:16:42.042Z,11.19
2022-11-20T23:19:12.603Z,11.15
2022-11-20T23:21:41.075Z,11.13
2022-11-20T23:24:09.541Z,11.06
2022-11-20T23:26:38.810Z,11.08
2022-11-20T23:29:06.795Z,11.08
2022-11-20T23:31:40.005Z,11.04
2022-11-20T23:34:07.404Z,11.00
2022-11-20T23:36:34.450Z,11.09
2022-11-20T23:39:01.622Z,11.03
2022-11-20T23:41:28.680Z,11.22
2022-11-20T23:43:55.839Z,11.20
2022-11-20T23:46:23.018Z,11.15
2022-11-20T23:48:50.156Z,11.15
2022-11-20T23:51:17.508Z,11.12
2022-11-20T23:53:45.114Z,11.03
2022-11-20T23:56:14.860Z,11.04
2022-11-20T23:58:42.816Z,10.97
